sensor_id;sensor_type;location;lat;lon;timestamp;P1;durP1;ratioP1;P2;durP2;ratioP2
9960;SDS011;5021;51.506;11.320;2023-04-03T00:02:09;5.60;;;2.87;;
9960;SDS011;5021;51.506;11.320;2023-04-03T00:04:35;6.20;;;2.53;;
9960;SDS011;5021;51.506;11.320;2023-04-03T00:07:01;7.00;;;2.40;;
9960;SDS011;5021;51.506;11.320;2023-04-03T00:09:26;7.03;;;2.63;;
9960;SDS011;5021;51.506;11.320;2023-04-03T00:11:52;5.50;;;2.80;;
9960;SDS011;5021;51.506;11.320;2023-04-03T00:14:18;5.73;;;2.40;;
9960;SDS011;5021;51.506;11.320;2023-04-03T00:16:44;5.20;;;2.40;;
9960;SDS011;5021;51.506;11.320;2023-04-03T00:19:10;5.33;;;2.70;;
9960;SDS011;5021;51.506;11.320;2023-04-03T00:21:39;6.00;;;2.60;;
9960;SDS011;5021;51.506;11.320;2023-04-03T00:24:06;3.23;;;2.20;;
9960;SDS011;5021;51.506;11.320;2023-04-03T00:26:32;4.93;;;2.47;;
9960;SDS011;5021;51.506;11.320;2023-04-03T00:28:57;8.07;;;2.60;;
9960;SDS011;5021;51.506;11.320;2023-04-03T00:31:23;6.23;;;2.60;;
9960;SDS011;5021;51.506;11.320;2023-04-03T00:33:50;6.67;;;2.60;;
9960;SDS011;5021;51.506;11.320;2023-04-03T00:36:15;9.93;;;3.00;;
9960;SDS011;5021;51.506;11.320;2023-04-03T00:38:41;4.17;;;2.30;;
9960;SDS011;5021;51.506;11.320;2023-04-03T00:41:07;6.57;;;2.47;;
9960;SDS011;5021;51.506;11.320;2023-04-03T00:43:33;4.00;;;2.23;;
9960;SDS011;5021;51.506;11.320;2023-04-03T00:45:59;8.47;;;3.10;;
9960;SDS011;5021;51.506;11.320;2023-04-03T00:48:27;6.20;;;2.67;;
9960;SDS011;5021;51.506;11.320;2023-04-03T00:50:54;4.63;;;3.10;;
9960;SDS011;5021;51.506;11.320;2023-04-03T00:53:25;6.87;;;2.60;;
9960;SDS011;5021;51.506;11.320;2023-04-03T00:55:52;4.70;;;2.80;;
9960;SDS011;5021;51.506;11.320;2023-04-03T00:58:20;6.47;;;2.93;;
9960;SDS011;5021;51.506;11.320;2023-04-03T01:00:49;5.97;;;2.83;;
9960;SDS011;5021;51.506;11.320;2023-04-03T01:03:18;6.87;;;3.13;;
9960;SDS011;5021;51.506;11.320;2023-04-03T01:05:45;4.80;;;2.60;;
9960;SDS011;5021;51.506;11.320;2023-04-03T01:08:11;9.03;;;3.00;;
9960;SDS011;5021;51.506;11.320;2023-04-03T01:10:37;7.53;;;2.63;;
9960;SDS011;5021;51.506;11.320;2023-04-03T01:13:08;7.70;;;3.23;;
9960;SDS011;5021;51.506;11.320;2023-04-03T01:15:42;7.73;;;2.90;;
9960;SDS011;5021;51.506;11.320;2023-04-03T01:18:09;5.77;;;2.80;;
9960;SDS011;5021;51.506;11.320;2023-04-03T01:23:36;8.17;;;3.30;;
9960;SDS011;5021;51.506;11.320;2023-04-03T01:26:07;6.93;;;3.20;;
9960;SDS011;5021;51.506;11.320;2023-04-03T01:28:35;6.33;;;3.00;;
9960;SDS011;5021;51.506;11.320;2023-04-03T01:31:21;4.57;;;2.80;;
9960;SDS011;5021;51.506;11.320;2023-04-03T01:33:48;5.50;;;3.03;;
9960;SDS011;5021;51.506;11.320;2023-04-03T01:36:15;5.73;;;2.90;;
9960;SDS011;5021;51.506;11.320;2023-04-03T01:38:42;8.43;;;2.67;;
9960;SDS011;5021;51.506;11.320;2023-04-03T01:41:08;3.60;;;2.60;;
9960;SDS011;5021;51.506;11.320;2023-04-03T01:43:34;6.33;;;2.87;;
9960;SDS011;5021;51.506;11.320;2023-04-03T01:46:00;7.87;;;2.90;;
9960;SDS011;5021;51.506;11.320;2023-04-03T01:48:26;7.63;;;3.57;;
9960;SDS011;5021;51.506;11.320;2023-04-03T01:50:52;10.13;;;3.37;;
9960;SDS011;5021;51.506;11.320;2023-04-03T01:53:17;6.20;;;3.07;;
9960;SDS011;5021;51.506;11.320;2023-04-03T01:55:43;6.93;;;3.80;;
9960;SDS011;5021;51.506;11.320;2023-04-03T01:58:10;7.30;;;3.57;;
9960;SDS011;5021;51.506;11.320;2023-04-03T02:00:36;4.43;;;3.07;;
9960;SDS011;5021;51.506;11.320;2023-04-03T02:03:02;4.20;;;2.87;;
9960;SDS011;5021;51.506;11.320;2023-04-03T02:05:28;6.13;;;2.80;;
9960;SDS011;5021;51.506;11.320;2023-04-03T02:07:54;9.17;;;3.30;;
9960;SDS011;5021;51.506;11.320;2023-04-03T02:10:20;8.70;;;3.10;;
9960;SDS011;5021;51.506;11.320;2023-04-03T02:12:46;4.93;;;2.90;;
9960;SDS011;5021;51.506;11.320;2023-04-03T02:15:12;7.97;;;3.07;;
9960;SDS011;5021;51.506;11.320;2023-04-03T02:17:38;8.03;;;2.90;;
9960;SDS011;5021;51.506;11.320;2023-04-03T02:20:04;7.87;;;3.30;;
9960;SDS011;5021;51.506;11.320;2023-04-03T02:22:30;6.07;;;2.87;;
9960;SDS011;5021;51.506;11.320;2023-04-03T02:24:56;5.57;;;2.90;;
9960;SDS011;5021;51.506;11.320;2023-04-03T02:27:22;8.00;;;3.37;;
9960;SDS011;5021;51.506;11.320;2023-04-03T02:29:48;3.70;;;2.40;;
9960;SDS011;5021;51.506;11.320;2023-04-03T02:32:13;4.67;;;2.83;;
9960;SDS011;5021;51.506;11.320;2023-04-03T02:34:39;8.40;;;3.33;;
9960;SDS011;5021;51.506;11.320;2023-04-03T02:37:05;7.23;;;3.10;;
9960;SDS011;5021;51.506;11.320;2023-04-03T02:39:31;5.37;;;2.97;;
9960;SDS011;5021;51.506;11.320;2023-04-03T02:41:57;7.40;;;2.70;;
9960;SDS011;5021;51.506;11.320;2023-04-03T02:44:23;4.60;;;2.83;;
9960;SDS011;5021;51.506;11.320;2023-04-03T02:46:49;7.07;;;2.90;;
9960;SDS011;5021;51.506;11.320;2023-04-03T02:49:15;5.47;;;2.80;;
9960;SDS011;5021;51.506;11.320;2023-04-03T02:51:41;7.70;;;3.23;;
9960;SDS011;5021;51.506;11.320;2023-04-03T02:54:07;5.37;;;2.60;;
9960;SDS011;5021;51.506;11.320;2023-04-03T02:56:33;6.33;;;2.80;;
9960;SDS011;5021;51.506;11.320;2023-04-03T02:58:59;9.83;;;3.27;;
9960;SDS011;5021;51.506;11.320;2023-04-03T03:01:25;6.77;;;3.10;;
9960;SDS011;5021;51.506;11.320;2023-04-03T03:03:56;5.53;;;2.97;;
9960;SDS011;5021;51.506;11.320;2023-04-03T03:06:22;4.53;;;3.50;;
9960;SDS011;5021;51.506;11.320;2023-04-03T03:08:47;6.30;;;2.93;;
9960;SDS011;5021;51.506;11.320;2023-04-03T03:11:13;4.57;;;2.63;;
9960;SDS011;5021;51.506;11.320;2023-04-03T03:13:39;7.43;;;3.27;;
9960;SDS011;5021;51.506;11.320;2023-04-03T03:16:06;7.50;;;3.10;;
9960;SDS011;5021;51.506;11.320;2023-04-03T03:18:32;6.27;;;3.07;;
9960;SDS011;5021;51.506;11.320;2023-04-03T03:20:59;9.53;;;3.10;;
9960;SDS011;5021;51.506;11.320;2023-04-03T03:23:25;4.53;;;2.77;;
9960;SDS011;5021;51.506;11.320;2023-04-03T03:25:59;5.47;;;2.90;;
9960;SDS011;5021;51.506;11.320;2023-04-03T03:28:25;8.67;;;4.00;;
9960;SDS011;5021;51.506;11.320;2023-04-03T03:30:51;5.80;;;3.00;;
9960;SDS011;5021;51.506;11.320;2023-04-03T03:33:17;6.23;;;2.73;;
9960;SDS011;5021;51.506;11.320;2023-04-03T03:35:43;5.57;;;3.10;;
9960;SDS011;5021;51.506;11.320;2023-04-03T03:38:09;7.50;;;3.10;;
9960;SDS011;5021;51.506;11.320;2023-04-03T03:40:35;10.73;;;3.20;;
9960;SDS011;5021;51.506;11.320;2023-04-03T03:43:01;8.87;;;3.13;;
9960;SDS011;5021;51.506;11.320;2023-04-03T03:45:28;6.90;;;4.07;;
9960;SDS011;5021;51.506;11.320;2023-04-03T03:47:54;4.33;;;3.50;;
9960;SDS011;5021;51.506;11.320;2023-04-03T03:50:20;5.77;;;3.47;;
9960;SDS011;5021;51.506;11.320;2023-04-03T03:52:46;6.73;;;3.20;;
9960;SDS011;5021;51.506;11.320;2023-04-03T03:55:12;8.50;;;3.30;;
9960;SDS011;5021;51.506;11.320;2023-04-03T03:57:38;8.50;;;3.80;;
9960;SDS011;5021;51.506;11.320;2023-04-03T04:00:04;6.83;;;3.30;;
9960;SDS011;5021;51.506;11.320;2023-04-03T04:02:30;8.33;;;3.47;;
9960;SDS011;5021;51.506;11.320;2023-04-03T04:04:56;7.13;;;3.77;;
9960;SDS011;5021;51.506;11.320;2023-04-03T04:07:22;6.30;;;3.00;;
9960;SDS011;5021;51.506;11.320;2023-04-03T04:09:48;5.63;;;3.33;;
9960;SDS011;5021;51.506;11.320;2023-04-03T04:12:14;6.87;;;3.00;;
9960;SDS011;5021;51.506;11.320;2023-04-03T04:14:40;7.80;;;3.87;;
9960;SDS011;5021;51.506;11.320;2023-04-03T04:17:06;9.37;;;3.53;;
9960;SDS011;5021;51.506;11.320;2023-04-03T04:19:32;8.13;;;3.10;;
9960;SDS011;5021;51.506;11.320;2023-04-03T04:21:58;4.93;;;2.97;;
9960;SDS011;5021;51.506;11.320;2023-04-03T04:24:24;11.23;;;4.17;;
9960;SDS011;5021;51.506;11.320;2023-04-03T04:26:50;7.60;;;3.20;;
9960;SDS011;5021;51.506;11.320;2023-04-03T04:29:16;7.80;;;3.80;;
9960;SDS011;5021;51.506;11.320;2023-04-03T04:31:42;8.90;;;3.57;;
9960;SDS011;5021;51.506;11.320;2023-04-03T04:34:08;9.50;;;3.73;;
9960;SDS011;5021;51.506;11.320;2023-04-03T04:36:34;8.23;;;2.97;;
9960;SDS011;5021;51.506;11.320;2023-04-03T04:39:00;8.43;;;2.83;;
9960;SDS011;5021;51.506;11.320;2023-04-03T04:41:26;8.53;;;3.53;;
9960;SDS011;5021;51.506;11.320;2023-04-03T04:43:52;6.83;;;2.60;;
9960;SDS011;5021;51.506;11.320;2023-04-03T04:46:18;6.30;;;2.77;;
9960;SDS011;5021;51.506;11.320;2023-04-03T04:48:44;10.83;;;4.23;;
9960;SDS011;5021;51.506;11.320;2023-04-03T04:51:10;6.60;;;3.40;;
9960;SDS011;5021;51.506;11.320;2023-04-03T04:53:37;8.13;;;3.20;;
9960;SDS011;5021;51.506;11.320;2023-04-03T04:56:03;8.73;;;3.30;;
9960;SDS011;5021;51.506;11.320;2023-04-03T04:58:29;7.70;;;3.33;;
9960;SDS011;5021;51.506;11.320;2023-04-03T05:00:58;9.53;;;3.93;;
9960;SDS011;5021;51.506;11.320;2023-04-03T05:03:25;9.23;;;3.40;;
9960;SDS011;5021;51.506;11.320;2023-04-03T05:05:50;6.57;;;3.67;;
9960;SDS011;5021;51.506;11.320;2023-04-03T05:08:16;6.80;;;3.97;;
9960;SDS011;5021;51.506;11.320;2023-04-03T05:10:44;7.73;;;3.50;;
9960;SDS011;5021;51.506;11.320;2023-04-03T05:13:10;7.40;;;4.80;;
9960;SDS011;5021;51.506;11.320;2023-04-03T05:15:35;9.03;;;4.53;;
9960;SDS011;5021;51.506;11.320;2023-04-03T05:18:01;7.17;;;3.73;;
9960;SDS011;5021;51.506;11.320;2023-04-03T05:20:27;7.23;;;4.17;;
9960;SDS011;5021;51.506;11.320;2023-04-03T05:22:53;7.77;;;3.73;;
9960;SDS011;5021;51.506;11.320;2023-04-03T05:25:19;11.37;;;6.27;;
9960;SDS011;5021;51.506;11.320;2023-04-03T05:27:45;9.87;;;5.80;;
9960;SDS011;5021;51.506;11.320;2023-04-03T05:30:11;10.90;;;6.67;;
9960;SDS011;5021;51.506;11.320;2023-04-03T05:32:37;9.93;;;5.40;;
9960;SDS011;5021;51.506;11.320;2023-04-03T05:35:04;8.03;;;4.57;;
9960;SDS011;5021;51.506;11.320;2023-04-03T05:37:30;7.47;;;4.40;;
9960;SDS011;5021;51.506;11.320;2023-04-03T05:39:56;9.93;;;5.00;;
9960;SDS011;5021;51.506;11.320;2023-04-03T05:42:22;10.07;;;4.43;;
9960;SDS011;5021;51.506;11.320;2023-04-03T05:44:48;8.87;;;4.23;;
9960;SDS011;5021;51.506;11.320;2023-04-03T05:47:15;6.27;;;3.60;;
9960;SDS011;5021;51.506;11.320;2023-04-03T05:49:41;10.03;;;4.40;;
9960;SDS011;5021;51.506;11.320;2023-04-03T05:52:23;8.33;;;4.00;;
9960;SDS011;5021;51.506;11.320;2023-04-03T05:54:51;6.93;;;3.07;;
9960;SDS011;5021;51.506;11.320;2023-04-03T05:57:17;7.00;;;3.50;;
9960;SDS011;5021;51.506;11.320;2023-04-03T05:59:43;6.27;;;3.73;;
9960;SDS011;5021;51.506;11.320;2023-04-03T06:02:11;5.87;;;3.77;;
9960;SDS011;5021;51.506;11.320;2023-04-03T06:04:37;7.20;;;3.57;;
9960;SDS011;5021;51.506;11.320;2023-04-03T06:07:03;7.60;;;4.57;;
9960;SDS011;5021;51.506;11.320;2023-04-03T06:09:29;8.60;;;4.00;;
9960;SDS011;5021;51.506;11.320;2023-04-03T06:11:55;10.13;;;4.40;;
9960;SDS011;5021;51.506;11.320;2023-04-03T06:14:23;10.57;;;3.60;;
9960;SDS011;5021;51.506;11.320;2023-04-03T06:16:49;9.13;;;5.30;;
9960;SDS011;5021;51.506;11.320;2023-04-03T06:19:15;6.20;;;3.93;;
9960;SDS011;5021;51.506;11.320;2023-04-03T06:21:41;9.77;;;3.40;;
9960;SDS011;5021;51.506;11.320;2023-04-03T06:24:07;6.53;;;3.10;;
9960;SDS011;5021;51.506;11.320;2023-04-03T06:26:34;10.50;;;3.60;;
9960;SDS011;5021;51.506;11.320;2023-04-03T06:29:00;8.87;;;3.30;;
9960;SDS011;5021;51.506;11.320;2023-04-03T06:31:27;7.97;;;3.83;;
9960;SDS011;5021;51.506;11.320;2023-04-03T06:33:53;5.30;;;2.90;;
9960;SDS011;5021;51.506;11.320;2023-04-03T06:36:19;10.87;;;3.50;;
9960;SDS011;5021;51.506;11.320;2023-04-03T06:38:46;11.03;;;4.23;;
9960;SDS011;5021;51.506;11.320;2023-04-03T06:41:12;5.53;;;3.53;;
9960;SDS011;5021;51.506;11.320;2023-04-03T06:43:38;8.00;;;3.53;;
9960;SDS011;5021;51.506;11.320;2023-04-03T06:46:04;6.00;;;3.60;;
9960;SDS011;5021;51.506;11.320;2023-04-03T06:48:30;5.93;;;3.20;;
9960;SDS011;5021;51.506;11.320;2023-04-03T06:50:56;9.80;;;4.17;;
9960;SDS011;5021;51.506;11.320;2023-04-03T06:53:22;9.63;;;3.33;;
9960;SDS011;5021;51.506;11.320;2023-04-03T06:55:48;5.70;;;2.83;;
9960;SDS011;5021;51.506;11.320;2023-04-03T06:58:14;5.37;;;3.10;;
9960;SDS011;5021;51.506;11.320;2023-04-03T07:00:42;7.00;;;3.43;;
9960;SDS011;5021;51.506;11.320;2023-04-03T07:03:08;8.40;;;3.63;;
9960;SDS011;5021;51.506;11.320;2023-04-03T07:05:34;8.50;;;3.40;;
9960;SDS011;5021;51.506;11.320;2023-04-03T07:07:59;5.03;;;3.50;;
9960;SDS011;5021;51.506;11.320;2023-04-03T07:10:25;4.33;;;3.00;;
9960;SDS011;5021;51.506;11.320;2023-04-03T07:12:51;6.03;;;3.50;;
9960;SDS011;5021;51.506;11.320;2023-04-03T07:15:17;6.07;;;3.93;;
9960;SDS011;5021;51.506;11.320;2023-04-03T07:17:43;6.73;;;4.03;;
9960;SDS011;5021;51.506;11.320;2023-04-03T07:20:09;5.60;;;3.50;;
9960;SDS011;5021;51.506;11.320;2023-04-03T07:22:35;5.87;;;3.10;;
9960;SDS011;5021;51.506;11.320;2023-04-03T07:25:01;5.53;;;2.30;;
9960;SDS011;5021;51.506;11.320;2023-04-03T07:27:27;5.87;;;2.50;;
9960;SDS011;5021;51.506;11.320;2023-04-03T07:29:53;8.10;;;2.70;;
9960;SDS011;5021;51.506;11.320;2023-04-03T07:32:20;7.63;;;2.63;;
9960;SDS011;5021;51.506;11.320;2023-04-03T07:34:46;3.27;;;2.30;;
9960;SDS011;5021;51.506;11.320;2023-04-03T07:37:12;9.17;;;3.23;;
9960;SDS011;5021;51.506;11.320;2023-04-03T07:39:39;7.63;;;3.23;;
9960;SDS011;5021;51.506;11.320;2023-04-03T07:42:06;7.67;;;3.00;;
9960;SDS011;5021;51.506;11.320;2023-04-03T07:44:33;8.33;;;2.90;;
9960;SDS011;5021;51.506;11.320;2023-04-03T07:46:59;9.03;;;3.13;;
9960;SDS011;5021;51.506;11.320;2023-04-03T07:49:25;6.67;;;2.43;;
9960;SDS011;5021;51.506;11.320;2023-04-03T07:51:52;5.40;;;2.40;;
9960;SDS011;5021;51.506;11.320;2023-04-03T07:54:18;3.80;;;2.70;;
9960;SDS011;5021;51.506;11.320;2023-04-03T07:56:44;3.87;;;2.43;;
9960;SDS011;5021;51.506;11.320;2023-04-03T07:59:10;3.43;;;2.20;;
9960;SDS011;5021;51.506;11.320;2023-04-03T08:01:36;4.23;;;2.67;;
9960;SDS011;5021;51.506;11.320;2023-04-03T08:04:02;6.40;;;3.93;;
9960;SDS011;5021;51.506;11.320;2023-04-03T08:06:28;7.03;;;3.20;;
9960;SDS011;5021;51.506;11.320;2023-04-03T08:08:54;2.80;;;2.13;;
9960;SDS011;5021;51.506;11.320;2023-04-03T08:11:21;4.67;;;2.43;;
9960;SDS011;5021;51.506;11.320;2023-04-03T08:13:48;4.73;;;2.37;;
9960;SDS011;5021;51.506;11.320;2023-04-03T08:16:16;6.30;;;2.20;;
9960;SDS011;5021;51.506;11.320;2023-04-03T08:18:42;3.63;;;2.43;;
9960;SDS011;5021;51.506;11.320;2023-04-03T08:21:09;5.73;;;2.40;;
9960;SDS011;5021;51.506;11.320;2023-04-03T08:23:35;5.17;;;2.60;;
9960;SDS011;5021;51.506;11.320;2023-04-03T08:26:05;5.93;;;2.87;;
9960;SDS011;5021;51.506;11.320;2023-04-03T08:28:31;4.67;;;3.03;;
9960;SDS011;5021;51.506;11.320;2023-04-03T08:31:01;4.97;;;2.77;;
9960;SDS011;5021;51.506;11.320;2023-04-03T08:33:27;4.53;;;2.73;;
9960;SDS011;5021;51.506;11.320;2023-04-03T08:35:53;3.50;;;2.33;;
9960;SDS011;5021;51.506;11.320;2023-04-03T08:38:19;6.23;;;3.37;;
9960;SDS011;5021;51.506;11.320;2023-04-03T08:40:45;6.07;;;2.67;;
9960;SDS011;5021;51.506;11.320;2023-04-03T08:43:33;6.63;;;3.00;;
9960;SDS011;5021;51.506;11.320;2023-04-03T08:46:01;6.53;;;3.10;;
9960;SDS011;5021;51.506;11.320;2023-04-03T08:48:36;6.97;;;2.53;;
9960;SDS011;5021;51.506;11.320;2023-04-03T08:51:03;3.07;;;2.50;;
9960;SDS011;5021;51.506;11.320;2023-04-03T08:53:32;4.90;;;2.60;;
9960;SDS011;5021;51.506;11.320;2023-04-03T08:56:00;3.30;;;2.50;;
9960;SDS011;5021;51.506;11.320;2023-04-03T08:58:28;5.67;;;2.53;;
9960;SDS011;5021;51.506;11.320;2023-04-03T09:03:29;3.97;;;2.20;;
9960;SDS011;5021;51.506;11.320;2023-04-03T09:06:15;6.17;;;2.60;;
9960;SDS011;5021;51.506;11.320;2023-04-03T09:08:49;5.43;;;2.80;;
9960;SDS011;5021;51.506;11.320;2023-04-03T09:11:25;6.77;;;2.90;;
9960;SDS011;5021;51.506;11.320;2023-04-03T09:13:57;6.87;;;3.77;;
9960;SDS011;5021;51.506;11.320;2023-04-03T09:19:11;5.53;;;2.50;;
9960;SDS011;5021;51.506;11.320;2023-04-03T09:21:40;4.83;;;2.53;;
9960;SDS011;5021;51.506;11.320;2023-04-03T09:24:07;4.43;;;2.20;;
9960;SDS011;5021;51.506;11.320;2023-04-03T09:29:07;3.43;;;1.90;;
9960;SDS011;5021;51.506;11.320;2023-04-03T09:31:38;3.20;;;2.23;;
9960;SDS011;5021;51.506;11.320;2023-04-03T09:36:47;4.73;;;2.23;;
9960;SDS011;5021;51.506;11.320;2023-04-03T09:41:39;5.27;;;2.20;;
9960;SDS011;5021;51.506;11.320;2023-04-03T09:44:18;4.47;;;2.30;;
9960;SDS011;5021;51.506;11.320;2023-04-03T09:46:46;6.47;;;2.50;;
9960;SDS011;5021;51.506;11.320;2023-04-03T09:49:12;2.13;;;1.50;;
9960;SDS011;5021;51.506;11.320;2023-04-03T09:51:38;2.77;;;1.67;;
9960;SDS011;5021;51.506;11.320;2023-04-03T09:56:51;3.60;;;2.30;;
9960;SDS011;5021;51.506;11.320;2023-04-03T09:59:17;3.37;;;2.07;;
9960;SDS011;5021;51.506;11.320;2023-04-03T10:01:55;4.90;;;2.30;;
9960;SDS011;5021;51.506;11.320;2023-04-03T10:04:22;6.50;;;2.93;;
9960;SDS011;5021;51.506;11.320;2023-04-03T10:06:49;4.60;;;2.40;;
9960;SDS011;5021;51.506;11.320;2023-04-03T10:14:22;4.03;;;2.40;;
9960;SDS011;5021;51.506;11.320;2023-04-03T10:16:53;4.37;;;2.70;;
9960;SDS011;5021;51.506;11.320;2023-04-03T10:21:50;6.67;;;2.90;;
9960;SDS011;5021;51.506;11.320;2023-04-03T10:24:21;5.10;;;2.03;;
9960;SDS011;5021;51.506;11.320;2023-04-03T10:26:52;4.53;;;2.83;;
9960;SDS011;5021;51.506;11.320;2023-04-03T10:34:36;3.23;;;2.20;;
9960;SDS011;5021;51.506;11.320;2023-04-03T10:37:11;4.30;;;3.00;;
9960;SDS011;5021;51.506;11.320;2023-04-03T10:39:48;5.60;;;3.40;;
9960;SDS011;5021;51.506;11.320;2023-04-03T10:44:55;6.57;;;2.70;;
9960;SDS011;5021;51.506;11.320;2023-04-03T10:47:32;3.50;;;1.90;;
9960;SDS011;5021;51.506;11.320;2023-04-03T10:53:00;3.57;;;2.00;;
9960;SDS011;5021;51.506;11.320;2023-04-03T10:55:32;4.40;;;2.83;;
9960;SDS011;5021;51.506;11.320;2023-04-03T10:58:00;4.07;;;2.00;;
9960;SDS011;5021;51.506;11.320;2023-04-03T11:00:37;5.03;;;2.10;;
9960;SDS011;5021;51.506;11.320;2023-04-03T11:03:12;4.93;;;2.23;;
9960;SDS011;5021;51.506;11.320;2023-04-03T11:05:44;3.67;;;2.53;;
9960;SDS011;5021;51.506;11.320;2023-04-03T11:10:43;4.40;;;2.87;;
9960;SDS011;5021;51.506;11.320;2023-04-03T11:13:14;3.90;;;2.80;;
9960;SDS011;5021;51.506;11.320;2023-04-03T11:15:42;5.10;;;2.60;;
9960;SDS011;5021;51.506;11.320;2023-04-03T11:18:13;3.30;;;2.10;;
9960;SDS011;5021;51.506;11.320;2023-04-03T11:20:42;5.97;;;2.00;;
9960;SDS011;5021;51.506;11.320;2023-04-03T11:23:17;2.97;;;1.87;;
9960;SDS011;5021;51.506;11.320;2023-04-03T11:25:45;3.33;;;1.80;;
9960;SDS011;5021;51.506;11.320;2023-04-03T11:28:13;2.87;;;1.93;;
9960;SDS011;5021;51.506;11.320;2023-04-03T11:30:42;3.27;;;2.10;;
9960;SDS011;5021;51.506;11.320;2023-04-03T11:35:46;3.00;;;2.10;;
9960;SDS011;5021;51.506;11.320;2023-04-03T11:38:15;4.37;;;2.60;;
9960;SDS011;5021;51.506;11.320;2023-04-03T11:40:43;3.63;;;2.20;;
9960;SDS011;5021;51.506;11.320;2023-04-03T11:43:20;6.93;;;2.00;;
9960;SDS011;5021;51.506;11.320;2023-04-03T11:45:50;1.80;;;1.70;;
9960;SDS011;5021;51.506;11.320;2023-04-03T11:50:57;5.00;;;2.50;;
9960;SDS011;5021;51.506;11.320;2023-04-03T11:53:33;4.20;;;2.37;;
9960;SDS011;5021;51.506;11.320;2023-04-03T11:56:00;4.23;;;2.33;;
9960;SDS011;5021;51.506;11.320;2023-04-03T11:58:33;3.57;;;2.47;;
9960;SDS011;5021;51.506;11.320;2023-04-03T12:06:41;3.17;;;2.00;;
9960;SDS011;5021;51.506;11.320;2023-04-03T12:08:44;4.57;;;2.10;;
9960;SDS011;5021;51.506;11.320;2023-04-03T12:21:20;3.53;;;1.93;;
9960;SDS011;5021;51.506;11.320;2023-04-03T12:29:27;3.33;;;2.10;;
9960;SDS011;5021;51.506;11.320;2023-04-03T12:37:03;3.17;;;1.80;;
9960;SDS011;5021;51.506;11.320;2023-04-03T12:39:40;4.13;;;2.77;;
9960;SDS011;5021;51.506;11.320;2023-04-03T12:42:13;4.57;;;2.20;;
9960;SDS011;5021;51.506;11.320;2023-04-03T12:44:47;3.50;;;2.07;;
9960;SDS011;5021;51.506;11.320;2023-04-03T12:47:19;4.13;;;2.30;;
9960;SDS011;5021;51.506;11.320;2023-04-03T12:49:47;3.67;;;2.10;;
9960;SDS011;5021;51.506;11.320;2023-04-03T12:52:28;4.63;;;2.80;;
9960;SDS011;5021;51.506;11.320;2023-04-03T12:54:55;3.30;;;1.80;;
9960;SDS011;5021;51.506;11.320;2023-04-03T12:57:25;2.80;;;1.93;;
9960;SDS011;5021;51.506;11.320;2023-04-03T12:59:52;3.90;;;2.60;;
9960;SDS011;5021;51.506;11.320;2023-04-03T13:02:22;3.10;;;2.03;;
9960;SDS011;5021;51.506;11.320;2023-04-03T13:04:49;4.57;;;2.23;;
9960;SDS011;5021;51.506;11.320;2023-04-03T13:07:20;3.40;;;2.20;;
9960;SDS011;5021;51.506;11.320;2023-04-03T13:09:54;5.33;;;3.20;;
9960;SDS011;5021;51.506;11.320;2023-04-03T13:12:20;3.67;;;2.60;;
9960;SDS011;5021;51.506;11.320;2023-04-03T13:14:54;6.70;;;2.23;;
9960;SDS011;5021;51.506;11.320;2023-04-03T13:17:20;7.07;;;2.00;;
9960;SDS011;5021;51.506;11.320;2023-04-03T13:19:46;5.23;;;2.40;;
9960;SDS011;5021;51.506;11.320;2023-04-03T13:22:33;5.30;;;2.47;;
9960;SDS011;5021;51.506;11.320;2023-04-03T13:25:10;6.70;;;2.13;;
9960;SDS011;5021;51.506;11.320;2023-04-03T13:27:38;5.27;;;2.07;;
9960;SDS011;5021;51.506;11.320;2023-04-03T13:30:17;3.63;;;2.00;;
9960;SDS011;5021;51.506;11.320;2023-04-03T13:32:45;2.47;;;2.13;;
9960;SDS011;5021;51.506;11.320;2023-04-03T13:35:24;3.27;;;2.10;;
9960;SDS011;5021;51.506;11.320;2023-04-03T13:37:55;2.63;;;2.10;;
9960;SDS011;5021;51.506;11.320;2023-04-03T13:40:21;4.03;;;2.50;;
9960;SDS011;5021;51.506;11.320;2023-04-03T13:42:57;6.20;;;2.10;;
9960;SDS011;5021;51.506;11.320;2023-04-03T13:45:27;3.67;;;2.00;;
9960;SDS011;5021;51.506;11.320;2023-04-03T13:48:14;5.10;;;2.20;;
9960;SDS011;5021;51.506;11.320;2023-04-03T13:50:52;5.40;;;2.47;;
9960;SDS011;5021;51.506;11.320;2023-04-03T13:53:18;4.23;;;2.70;;
9960;SDS011;5021;51.506;11.320;2023-04-03T13:55:52;4.43;;;2.93;;
9960;SDS011;5021;51.506;11.320;2023-04-03T13:58:22;5.67;;;2.93;;
9960;SDS011;5021;51.506;11.320;2023-04-03T14:03:55;2.63;;;1.97;;
9960;SDS011;5021;51.506;11.320;2023-04-03T14:06:21;3.37;;;1.93;;
9960;SDS011;5021;51.506;11.320;2023-04-03T14:08:47;4.93;;;2.10;;
9960;SDS011;5021;51.506;11.320;2023-04-03T14:11:21;2.30;;;2.07;;
9960;SDS011;5021;51.506;11.320;2023-04-03T14:13:48;3.80;;;2.30;;
9960;SDS011;5021;51.506;11.320;2023-04-03T14:16:16;3.10;;;1.70;;
9960;SDS011;5021;51.506;11.320;2023-04-03T14:18:44;4.20;;;2.43;;
9960;SDS011;5021;51.506;11.320;2023-04-03T14:21:13;4.10;;;2.33;;
9960;SDS011;5021;51.506;11.320;2023-04-03T14:23:40;4.07;;;1.97;;
9960;SDS011;5021;51.506;11.320;2023-04-03T14:26:10;3.70;;;1.90;;
9960;SDS011;5021;51.506;11.320;2023-04-03T14:28:37;2.77;;;1.77;;
9960;SDS011;5021;51.506;11.320;2023-04-03T14:31:05;4.57;;;2.10;;
9960;SDS011;5021;51.506;11.320;2023-04-03T14:33:31;5.70;;;2.40;;
9960;SDS011;5021;51.506;11.320;2023-04-03T14:36:00;3.70;;;2.37;;
9960;SDS011;5021;51.506;11.320;2023-04-03T14:38:28;4.43;;;2.60;;
9960;SDS011;5021;51.506;11.320;2023-04-03T14:40:55;4.07;;;2.63;;
9960;SDS011;5021;51.506;11.320;2023-04-03T14:43:21;3.93;;;2.40;;
9960;SDS011;5021;51.506;11.320;2023-04-03T14:45:48;4.77;;;2.10;;
9960;SDS011;5021;51.506;11.320;2023-04-03T14:48:21;3.93;;;2.33;;
9960;SDS011;5021;51.506;11.320;2023-04-03T14:50:48;4.30;;;2.63;;
9960;SDS011;5021;51.506;11.320;2023-04-03T14:53:15;7.03;;;2.40;;
9960;SDS011;5021;51.506;11.320;2023-04-03T14:55:48;3.87;;;2.30;;
9960;SDS011;5021;51.506;11.320;2023-04-03T14:58:14;6.13;;;2.57;;
9960;SDS011;5021;51.506;11.320;2023-04-03T15:00:40;2.87;;;1.93;;
9960;SDS011;5021;51.506;11.320;2023-04-03T15:03:09;3.43;;;2.23;;
9960;SDS011;5021;51.506;11.320;2023-04-03T15:05:38;4.17;;;2.17;;
9960;SDS011;5021;51.506;11.320;2023-04-03T15:08:04;5.17;;;2.20;;
9960;SDS011;5021;51.506;11.320;2023-04-03T15:10:30;4.23;;;2.20;;
9960;SDS011;5021;51.506;11.320;2023-04-03T15:12:56;3.17;;;2.20;;
9960;SDS011;5021;51.506;11.320;2023-04-03T15:15:22;4.47;;;2.37;;
9960;SDS011;5021;51.506;11.320;2023-04-03T15:17:53;5.10;;;2.10;;
9960;SDS011;5021;51.506;11.320;2023-04-03T15:20:21;6.43;;;2.80;;
9960;SDS011;5021;51.506;11.320;2023-04-03T15:22:47;2.33;;;2.13;;
9960;SDS011;5021;51.506;11.320;2023-04-03T15:25:13;5.00;;;2.47;;
9960;SDS011;5021;51.506;11.320;2023-04-03T15:27:39;5.43;;;2.20;;
9960;SDS011;5021;51.506;11.320;2023-04-03T15:30:06;4.13;;;2.43;;
9960;SDS011;5021;51.506;11.320;2023-04-03T15:32:32;4.50;;;2.27;;
9960;SDS011;5021;51.506;11.320;2023-04-03T15:35:00;3.30;;;2.10;;
9960;SDS011;5021;51.506;11.320;2023-04-03T15:37:26;5.60;;;2.53;;
9960;SDS011;5021;51.506;11.320;2023-04-03T15:39:52;3.80;;;2.30;;
9960;SDS011;5021;51.506;11.320;2023-04-03T15:42:17;5.60;;;2.23;;
9960;SDS011;5021;51.506;11.320;2023-04-03T15:44:43;6.00;;;2.20;;
9960;SDS011;5021;51.506;11.320;2023-04-03T15:47:09;4.97;;;2.30;;
9960;SDS011;5021;51.506;11.320;2023-04-03T15:49:35;4.20;;;2.47;;
9960;SDS011;5021;51.506;11.320;2023-04-03T15:52:02;5.00;;;3.20;;
9960;SDS011;5021;51.506;11.320;2023-04-03T15:54:28;5.47;;;2.57;;
9960;SDS011;5021;51.506;11.320;2023-04-03T15:56:54;4.70;;;2.90;;
9960;SDS011;5021;51.506;11.320;2023-04-03T15:59:20;3.33;;;2.60;;
9960;SDS011;5021;51.506;11.320;2023-04-03T16:01:47;3.37;;;2.60;;
9960;SDS011;5021;51.506;11.320;2023-04-03T16:04:13;7.33;;;3.67;;
9960;SDS011;5021;51.506;11.320;2023-04-03T16:06:39;3.40;;;2.50;;
9960;SDS011;5021;51.506;11.320;2023-04-03T16:09:05;3.80;;;2.77;;
9960;SDS011;5021;51.506;11.320;2023-04-03T16:11:31;4.57;;;2.77;;
9960;SDS011;5021;51.506;11.320;2023-04-03T16:14:00;5.47;;;3.43;;
9960;SDS011;5021;51.506;11.320;2023-04-03T16:16:25;5.77;;;3.10;;
9960;SDS011;5021;51.506;11.320;2023-04-03T16:18:53;5.70;;;3.53;;